sensor_id;sensor_type;location;lat;lon;timestamp;pressure;altitude;pressure_sealevel;temperature;humidity
6528;BME280;64597;42.664;23.256;2023-02-12T00:02:14;95527.38;;;2.90;34.38
6528;BME280;64597;42.664;23.256;2023-02-12T00:04:40;95515.81;;;2.77;34.56
6528;BME280;64597;42.664;23.256;2023-02-12T00:07:05;95516.28;;;2.64;34.38
6528;BME280;64597;42.664;23.256;2023-02-12T00:09:31;95458.22;;;2.31;34.48
6528;BME280;64597;42.664;23.256;2023-02-12T00:11:56;95513.84;;;2.63;34.69
6528;BME280;64597;42.664;23.256;2023-02-12T00:14:22;95523.44;;;2.70;34.32
6528;BME280;64597;42.664;23.256;2023-02-12T00:16:47;95535.34;;;2.65;34.43
6528;BME280;64597;42.664;23.256;2023-02-12T00:19:12;95535.31;;;2.57;34.78
6528;BME280;64597;42.664;23.256;2023-02-12T00:21:38;95523.31;;;2.64;34.56
6528;BME280;64597;42.664;23.256;2023-02-12T00:24:03;95525.91;;;2.64;34.82
6528;BME280;64597;42.664;23.256;2023-02-12T00:26:29;95525.91;;;2.64;34.86
6528;BME280;64597;42.664;23.256;2023-02-12T00:28:54;95536.63;;;2.69;34.94
6528;BME280;64597;42.664;23.256;2023-02-12T00:31:23;95516.47;;;2.55;34.92
6528;BME280;64597;42.664;23.256;2023-02-12T00:33:49;95516.94;;;2.66;34.83
6528;BME280;64597;42.664;23.256;2023-02-12T00:36:18;95513.19;;;2.69;34.80
6528;BME280;64597;42.664;23.256;2023-02-12T00:38:45;95507.34;;;2.67;35.20
6528;BME280;64597;42.664;23.256;2023-02-12T00:41:11;95505.41;;;2.61;34.57
6528;BME280;64597;42.664;23.256;2023-02-12T00:43:36;95474.81;;;2.46;35.14
6528;BME280;64597;42.664;23.256;2023-02-12T00:46:03;95488.47;;;2.57;34.97
6528;BME280;64597;42.664;23.256;2023-02-12T00:48:29;95492.72;;;2.58;34.87
6528;BME280;64597;42.664;23.256;2023-02-12T00:50:55;95484.91;;;2.58;35.15
6528;BME280;64597;42.664;23.256;2023-02-12T00:53:21;95479.38;;;2.44;35.55
6528;BME280;64597;42.664;23.256;2023-02-12T00:55:46;95487.34;;;2.51;35.47
6528;BME280;64597;42.664;23.256;2023-02-12T00:58:11;95481.97;;;2.53;35.37
6528;BME280;64597;42.664;23.256;2023-02-12T01:00:37;95468.97;;;2.44;35.92
6528;BME280;64597;42.664;23.256;2023-02-12T01:03:03;95462.75;;;2.37;36.32
6528;BME280;64597;42.664;23.256;2023-02-12T01:05:29;95467.66;;;2.40;36.07
6528;BME280;64597;42.664;23.256;2023-02-12T01:07:55;95460.50;;;2.50;36.25
6528;BME280;64597;42.664;23.256;2023-02-12T01:10:24;95451.06;;;2.33;36.41
6528;BME280;64597;42.664;23.256;2023-02-12T01:12:49;95469.78;;;2.37;36.59
6528;BME280;64597;42.664;23.256;2023-02-12T01:15:16;95478.06;;;2.40;36.73
6528;BME280;64597;42.664;23.256;2023-02-12T01:17:42;95475.78;;;2.29;36.78
6528;BME280;64597;42.664;23.256;2023-02-12T01:20:10;95454.97;;;2.45;36.57
6528;BME280;64597;42.664;23.256;2023-02-12T01:22:37;95470.44;;;2.39;37.14
6528;BME280;64597;42.664;23.256;2023-02-12T01:25:04;95476.75;;;2.28;36.66
6528;BME280;64597;42.664;23.256;2023-02-12T01:27:30;95481.31;;;2.42;36.98
6528;BME280;64597;42.664;23.256;2023-02-12T01:29:55;95482.28;;;2.41;37.10
6528;BME280;64597;42.664;23.256;2023-02-12T01:32:21;95486.19;;;2.45;36.96
6528;BME280;64597;42.664;23.256;2023-02-12T01:34:47;95485.88;;;2.48;37.02
6528;BME280;64597;42.664;23.256;2023-02-12T01:37:13;95486.19;;;2.45;37.12
6528;BME280;64597;42.664;23.256;2023-02-12T01:39:38;95480.31;;;2.35;37.29
6528;BME280;64597;42.664;23.256;2023-02-12T01:42:04;95479.38;;;2.36;37.70
6528;BME280;64597;42.664;23.256;2023-02-12T01:44:32;95470.44;;;2.47;37.14
6528;BME280;64597;42.664;23.256;2023-02-12T01:47:04;95468.97;;;2.44;36.80
6528;BME280;64597;42.664;23.256;2023-02-12T01:49:41;95443.59;;;2.38;37.41
6528;BME280;64597;42.664;23.256;2023-02-12T01:52:14;95467.31;;;2.43;37.45
6528;BME280;64597;42.664;23.256;2023-02-12T01:54:42;95450.56;;;2.46;37.74
6528;BME280;64597;42.664;23.256;2023-02-12T01:57:08;95448.78;;;2.55;37.46
6528;BME280;64597;42.664;23.256;2023-02-12T01:59:36;95459.19;;;2.46;37.72
6528;BME280;64597;42.664;23.256;2023-02-12T02:02:03;95458.22;;;2.47;37.88
6528;BME280;64597;42.664;23.256;2023-02-12T02:04:36;95466.84;;;2.48;37.51
6528;BME280;64597;42.664;23.256;2023-02-12T02:07:05;95472.22;;;2.46;37.71
6528;BME280;64597;42.664;23.256;2023-02-12T02:09:33;95456.91;;;2.43;38.03
6528;BME280;64597;42.664;23.256;2023-02-12T02:12:00;95465.06;;;2.48;37.71
6528;BME280;64597;42.664;23.256;2023-02-12T02:14:45;95454.97;;;2.37;37.59
6528;BME280;64597;42.664;23.256;2023-02-12T02:34:08;95455.94;;;2.36;39.11
6528;BME280;64597;42.664;23.256;2023-02-12T02:44:47;95456.44;;;2.40;40.06
6528;BME280;64597;42.664;23.256;2023-02-12T02:47:16;95446.84;;;2.40;40.60
6528;BME280;64597;42.664;23.256;2023-02-12T02:49:52;95445.84;;;2.33;40.39
6528;BME280;64597;42.664;23.256;2023-02-12T02:52:23;95464.72;;;2.35;40.66
6528;BME280;64597;42.664;23.256;2023-02-12T02:54:55;95451.06;;;2.33;41.27
6528;BME280;64597;42.664;23.256;2023-02-12T02:57:33;95456.44;;;2.40;40.87
6528;BME280;64597;42.664;23.256;2023-02-12T03:00:12;95451.22;;;2.40;40.54
6528;BME280;64597;42.664;23.256;2023-02-12T03:02:42;95449.75;;;2.45;40.85
6528;BME280;64597;42.664;23.256;2023-02-12T03:05:19;95447.00;;;2.47;40.71
6528;BME280;64597;42.664;23.256;2023-02-12T03:08:02;95443.91;;;2.51;40.89
6528;BME280;64597;42.664;23.256;2023-02-12T03:10:34;95454.31;;;2.51;40.84
6528;BME280;64597;42.664;23.256;2023-02-12T03:13:01;95455.59;;;2.56;40.99
6528;BME280;64597;42.664;23.256;2023-02-12T03:18:00;95460.31;;;2.60;40.95
6528;BME280;64597;42.664;23.256;2023-02-12T03:20:31;95464.09;;;2.58;41.41
6528;BME280;64597;42.664;23.256;2023-02-12T03:23:10;95461.47;;;2.66;41.42
6528;BME280;64597;42.664;23.256;2023-02-12T03:25:51;95445.53;;;2.69;41.12
6528;BME280;64597;42.664;23.256;2023-02-12T03:28:38;95447.94;;;2.70;41.22
6528;BME280;64597;42.664;23.256;2023-02-12T03:31:32;95440.31;;;2.69;41.40
6528;BME280;64597;42.664;23.256;2023-02-12T03:36:47;95440.47;;;2.75;41.73
6528;BME280;64597;42.664;23.256;2023-02-12T03:42:34;95442.25;;;2.83;41.75
6528;BME280;64597;42.664;23.256;2023-02-12T03:50:44;95438.34;;;2.87;42.04
6528;BME280;64597;42.664;23.256;2023-02-12T03:53:10;95439.63;;;2.91;41.99
6528;BME280;64597;42.664;23.256;2023-02-12T03:55:40;95436.56;;;2.87;41.65
6528;BME280;64597;42.664;23.256;2023-02-12T03:58:09;95434.25;;;2.84;41.65
6528;BME280;64597;42.664;23.256;2023-02-12T04:00:38;95440.78;;;2.96;42.06
6528;BME280;64597;42.664;23.256;2023-02-12T04:03:05;95445.16;;;3.04;41.80
6528;BME280;64597;42.664;23.256;2023-02-12T04:05:31;95433.91;;;3.03;42.23
6528;BME280;64597;42.664;23.256;2023-02-12T04:07:57;95434.38;;;3.07;42.12
6528;BME280;64597;42.664;23.256;2023-02-12T04:34:19;95462.19;;;3.22;40.33
6528;BME280;64597;42.664;23.256;2023-02-12T04:39:27;95457.31;;;3.19;40.72
6528;BME280;64597;42.664;23.256;2023-02-12T04:41:53;95457.81;;;3.23;40.52
6528;BME280;64597;42.664;23.256;2023-02-12T04:44:25;95472.13;;;3.27;40.16
6528;BME280;64597;42.664;23.256;2023-02-12T04:46:51;95467.91;;;3.18;39.81
6528;BME280;64597;42.664;23.256;2023-02-12T04:49:19;95462.34;;;3.21;40.31
6528;BME280;64597;42.664;23.256;2023-02-12T04:51:45;95463.66;;;3.17;40.12
6528;BME280;64597;42.664;23.256;2023-02-12T04:54:12;95474.88;;;3.25;39.63
6528;BME280;64597;42.664;23.256;2023-02-12T04:56:37;95470.47;;;3.26;39.91
6528;BME280;64597;42.664;23.256;2023-02-12T04:59:03;95493.28;;;3.24;39.93
6528;BME280;64597;42.664;23.256;2023-02-12T05:01:29;95450.66;;;3.09;39.98
6528;BME280;64597;42.664;23.256;2023-02-12T05:03:54;95484.16;;;3.28;39.81
6528;BME280;64597;42.664;23.256;2023-02-12T05:06:20;95491.34;;;3.18;39.95
6528;BME280;64597;42.664;23.256;2023-02-12T05:08:45;95490.34;;;3.19;40.34
6528;BME280;64597;42.664;23.256;2023-02-12T05:11:11;95478.34;;;3.10;40.57
6528;BME280;64597;42.664;23.256;2023-02-12T05:13:37;95500.47;;;3.22;39.94
6528;BME280;64597;42.664;23.256;2023-02-12T05:16:05;95493.94;;;3.18;40.29
6528;BME280;64597;42.664;23.256;2023-02-12T05:18:31;95513.16;;;3.17;40.10
6528;BME280;64597;42.664;23.256;2023-02-12T05:20:58;95511.19;;;3.19;40.25
6528;BME280;64597;42.664;23.256;2023-02-12T05:23:31;95500.31;;;3.15;41.50
6528;BME280;64597;42.664;23.256;2023-02-12T05:25:58;95524.56;;;3.24;41.83
6528;BME280;64597;42.664;23.256;2023-02-12T05:28:24;95526.19;;;3.09;42.40
6528;BME280;64597;42.664;23.256;2023-02-12T05:30:49;95527.16;;;3.16;42.50
6528;BME280;64597;42.664;23.256;2023-02-12T05:33:15;95528.97;;;2.99;43.22
6528;BME280;64597;42.664;23.256;2023-02-12T05:35:40;95539.56;;;2.98;43.87
6528;BME280;64597;42.664;23.256;2023-02-12T05:38:05;95528.81;;;2.93;44.43
6528;BME280;64597;42.664;23.256;2023-02-12T05:40:31;95531.13;;;2.88;44.88
6528;BME280;64597;42.664;23.256;2023-02-12T05:42:57;95539.72;;;2.72;45.43
6528;BME280;64597;42.664;23.256;2023-02-12T05:45:22;95544.78;;;2.82;45.43
6528;BME280;64597;42.664;23.256;2023-02-12T05:47:52;95550.13;;;2.88;45.30
6528;BME280;64597;42.664;23.256;2023-02-12T05:50:18;95518.25;;;2.70;45.23
6528;BME280;64597;42.664;23.256;2023-02-12T05:52:44;95543.63;;;2.76;45.65
6528;BME280;64597;42.664;23.256;2023-02-12T05:55:10;95537.44;;;2.61;46.71
6528;BME280;64597;42.664;23.256;2023-02-12T05:57:35;95559.22;;;2.52;47.51
6528;BME280;64597;42.664;23.256;2023-02-12T06:00:01;95555.47;;;2.46;48.39
6528;BME280;64597;42.664;23.256;2023-02-12T06:02:27;95556.44;;;2.45;48.80
6528;BME280;64597;42.664;23.256;2023-02-12T06:04:53;95559.38;;;2.42;49.53
6528;BME280;64597;42.664;23.256;2023-02-12T06:07:18;95556.78;;;2.42;49.26
6528;BME280;64597;42.664;23.256;2023-02-12T06:09:44;95562.16;;;2.41;49.42
6528;BME280;64597;42.664;23.256;2023-02-12T06:12:10;95565.41;;;2.43;49.88
6528;BME280;64597;42.664;23.256;2023-02-12T06:14:35;95557.91;;;2.40;50.10
6528;BME280;64597;42.664;23.256;2023-02-12T06:17:01;95552.88;;;2.46;50.39
6528;BME280;64597;42.664;23.256;2023-02-12T06:19:26;95548.16;;;2.42;51.14
6528;BME280;64597;42.664;23.256;2023-02-12T06:21:54;95555.09;;;2.25;52.14
6528;BME280;64597;42.664;23.256;2023-02-12T06:24:19;95558.03;;;2.22;53.21
6528;BME280;64597;42.664;23.256;2023-02-12T06:26:48;95552.16;;;2.12;53.80
6528;BME280;64597;42.664;23.256;2023-02-12T06:29:14;95557.19;;;2.14;54.46
6528;BME280;64597;42.664;23.256;2023-02-12T06:31:40;95547.91;;;2.03;55.34
6528;BME280;64597;42.664;23.256;2023-02-12T06:34:08;95551.38;;;2.20;56.14
6528;BME280;64597;42.664;23.256;2023-02-12T06:36:36;95551.97;;;2.06;56.93
6528;BME280;64597;42.664;23.256;2023-02-12T06:39:02;95552.28;;;2.03;56.83
6528;BME280;64597;42.664;23.256;2023-02-12T06:41:28;95553.09;;;2.03;56.85
6528;BME280;64597;42.664;23.256;2023-02-12T06:43:53;95559.19;;;1.86;57.58
6528;BME280;64597;42.664;23.256;2023-02-12T06:46:19;95557.31;;;1.96;57.42
6528;BME280;64597;42.664;23.256;2023-02-12T06:48:44;95564.50;;;2.02;57.35
6528;BME280;64597;42.664;23.256;2023-02-12T06:51:15;95550.50;;;2.03;57.65
6528;BME280;64597;42.664;23.256;2023-02-12T06:53:41;95554.06;;;1.94;57.05
6528;BME280;64597;42.664;23.256;2023-02-12T06:56:09;95570.97;;;1.98;57.33
6528;BME280;64597;42.664;23.256;2023-02-12T06:58:36;95565.78;;;1.98;57.15
6528;BME280;64597;42.664;23.256;2023-02-12T07:01:12;95568.69;;;2.03;56.93
6528;BME280;64597;42.664;23.256;2023-02-12T07:03:46;95572.81;;;2.14;56.96
6528;BME280;64597;42.664;23.256;2023-02-12T07:06:11;95569.56;;;2.20;56.56
6528;BME280;64597;42.664;23.256;2023-02-12T07:08:37;95560.91;;;2.11;56.66
6528;BME280;64597;42.664;23.256;2023-02-12T07:11:03;95563.53;;;2.19;56.21
6528;BME280;64597;42.664;23.256;2023-02-12T07:13:29;95547.13;;;2.19;56.43
6528;BME280;64597;42.664;23.256;2023-02-12T07:15:54;95563.91;;;2.32;56.36
6528;BME280;64597;42.664;23.256;2023-02-12T07:18:20;95561.63;;;2.37;56.26
6528;BME280;64597;42.664;23.256;2023-02-12T07:20:45;95563.75;;;2.42;56.48
6528;BME280;64597;42.664;23.256;2023-02-12T07:23:11;95557.44;;;2.44;56.33
6528;BME280;64597;42.664;23.256;2023-02-12T07:25:37;95552.22;;;2.44;56.04
6528;BME280;64597;42.664;23.256;2023-02-12T07:30:37;95552.25;;;2.53;55.78
6528;BME280;64597;42.664;23.256;2023-02-12T07:33:02;95560.22;;;2.59;55.65
6528;BME280;64597;42.664;23.256;2023-02-12T07:35:28;95563.31;;;2.63;55.69
6528;BME280;64597;42.664;23.256;2023-02-12T07:37:53;95570.81;;;2.66;55.15
6528;BME280;64597;42.664;23.256;2023-02-12T07:40:19;95570.66;;;2.67;55.25
6528;BME280;64597;42.664;23.256;2023-02-12T07:42:44;95551.44;;;2.60;54.99
6528;BME280;64597;42.664;23.256;2023-02-12T07:45:09;95573.72;;;2.71;55.11
6528;BME280;64597;42.664;23.256;2023-02-12T07:47:35;95578.28;;;2.77;54.79
6528;BME280;64597;42.664;23.256;2023-02-12T07:50:03;95581.22;;;2.82;54.72
6528;BME280;64597;42.664;23.256;2023-02-12T07:52:28;95579.75;;;2.79;54.86
6528;BME280;64597;42.664;23.256;2023-02-12T07:54:53;95591.31;;;2.77;54.71
6528;BME280;64597;42.664;23.256;2023-02-12T07:57:19;95577.81;;;2.73;55.09
6528;BME280;64597;42.664;23.256;2023-02-12T07:59:44;95561.84;;;2.60;55.16
6528;BME280;64597;42.664;23.256;2023-02-12T08:02:10;95581.88;;;2.60;55.49
6528;BME280;64597;42.664;23.256;2023-02-12T08:04:35;95567.66;;;2.46;55.71
6528;BME280;64597;42.664;23.256;2023-02-12T08:07:01;95591.13;;;2.62;56.36
6528;BME280;64597;42.664;23.256;2023-02-12T08:09:28;95580.19;;;2.42;56.28
6528;BME280;64597;42.664;23.256;2023-02-12T08:11:55;95596.78;;;2.49;56.33
6528;BME280;64597;42.664;23.256;2023-02-12T08:14:21;95596.78;;;2.49;57.00
6528;BME280;64597;42.664;23.256;2023-02-12T08:16:48;95598.41;;;2.42;57.06
6528;BME280;64597;42.664;23.256;2023-02-12T08:19:14;95595.16;;;2.48;57.48
6528;BME280;64597;42.664;23.256;2023-02-12T08:21:40;95596.94;;;2.48;57.74
6528;BME280;64597;42.664;23.256;2023-02-12T08:24:06;95587.00;;;2.43;57.47
6528;BME280;64597;42.664;23.256;2023-02-12T08:26:35;95600.38;;;2.48;57.48
6528;BME280;64597;42.664;23.256;2023-02-12T08:29:07;95590.94;;;2.47;57.71
6528;BME280;64597;42.664;23.256;2023-02-12T08:31:35;95607.91;;;2.60;57.44
6528;BME280;64597;42.664;23.256;2023-02-12T08:34:01;95606.25;;;2.67;57.13
6528;BME280;64597;42.664;23.256;2023-02-12T08:36:38;95608.03;;;2.66;57.36
6528;BME280;64597;42.664;23.256;2023-02-12T08:39:05;95621.88;;;2.67;57.33
6528;BME280;64597;42.664;23.256;2023-02-12T08:41:31;95598.09;;;2.53;57.18
6528;BME280;64597;42.664;23.256;2023-02-12T08:43:58;95624.63;;;2.57;57.59
6528;BME280;64597;42.664;23.256;2023-02-12T08:46:26;95631.63;;;2.57;57.65
6528;BME280;64597;42.664;23.256;2023-02-12T08:48:54;95636.03;;;2.64;57.26
6528;BME280;64597;42.664;23.256;2023-02-12T08:51:23;95641.88;;;2.66;57.54
6528;BME280;64597;42.664;23.256;2023-02-12T08:53:53;95639.47;;;2.73;57.49
6528;BME280;64597;42.664;23.256;2023-02-12T08:56:20;95637.53;;;2.75;57.72
6528;BME280;64597;42.664;23.256;2023-02-12T08:58:45;95633.94;;;2.76;57.31
6528;BME280;64597;42.664;23.256;2023-02-12T09:01:17;95631.00;;;2.71;57.16
6528;BME280;64597;42.664;23.256;2023-02-12T09:03:44;95636.88;;;2.81;57.41
6528;BME280;64597;42.664;23.256;2023-02-12T09:06:10;95647.75;;;2.76;57.61
6528;BME280;64597;42.664;23.256;2023-02-12T09:08:37;95650.38;;;2.76;57.69
6528;BME280;64597;42.664;23.256;2023-02-12T09:11:07;95653.63;;;2.78;57.44
6528;BME280;64597;42.664;23.256;2023-02-12T09:13:34;95660.00;;;2.84;57.29
6528;BME280;64597;42.664;23.256;2023-02-12T09:16:02;95654.28;;;2.88;57.49
6528;BME280;64597;42.664;23.256;2023-02-12T09:18:29;95654.75;;;2.68;57.61
6528;BME280;64597;42.664;23.256;2023-02-12T09:20:59;95666.50;;;2.80;57.38
6528;BME280;64597;42.664;23.256;2023-02-12T09:23:25;95666.81;;;2.77;57.56
6528;BME280;64597;42.664;23.256;2023-02-12T09:25:50;95659.94;;;2.60;58.06
6528;BME280;64597;42.664;23.256;2023-02-12T09:28:16;95668.56;;;2.60;58.48
6528;BME280;64597;42.664;23.256;2023-02-12T09:30:41;95668.41;;;2.62;58.57
6528;BME280;64597;42.664;23.256;2023-02-12T09:33:09;95667.25;;;2.64;58.49
6528;BME280;64597;42.664;23.256;2023-02-12T09:35:37;95656.38;;;2.69;58.51
6528;BME280;64597;42.664;23.256;2023-02-12T09:38:03;95661.41;;;2.70;58.09
6528;BME280;64597;42.664;23.256;2023-02-12T09:43:47;95667.16;;;2.82;57.84
6528;BME280;64597;42.664;23.256;2023-02-12T09:46:29;95673.66;;;2.70;58.04
6528;BME280;64597;42.664;23.256;2023-02-12T09:49:14;95665.84;;;2.70;58.24
6528;BME280;64597;42.664;23.256;2023-02-12T09:51:47;95671.03;;;2.62;58.43
6528;BME280;64597;42.664;23.256;2023-02-12T09:54:18;95677.19;;;2.61;58.65
6528;BME280;64597;42.664;23.256;2023-02-12T09:56:48;95687.81;;;2.75;58.44
6528;BME280;64597;42.664;23.256;2023-02-12T09:59:45;95674.97;;;2.74;58.23
6528;BME280;64597;42.664;23.256;2023-02-12T10:02:13;95673.97;;;2.83;57.66
6528;BME280;64597;42.664;23.256;2023-02-12T10:04:41;95666.16;;;2.83;58.13
6528;BME280;64597;42.664;23.256;2023-02-12T10:12:32;95680.03;;;2.91;58.04
6528;BME280;64597;42.664;23.256;2023-02-12T10:17:53;95688.03;;;3.06;58.09
6528;BME280;64597;42.664;23.256;2023-02-12T10:20:32;95689.50;;;3.00;57.69
6528;BME280;64597;42.664;23.256;2023-02-12T10:26:12;95670.75;;;3.13;57.55
6528;BME280;64597;42.664;23.256;2023-02-12T10:28:40;95665.56;;;3.21;57.35
6528;BME280;64597;42.664;23.256;2023-02-12T10:33:43;95671.09;;;3.58;57.22
6528;BME280;64597;42.664;23.256;2023-02-12T10:42:05;95676.66;;;3.63;56.78
6528;BME280;64597;42.664;23.256;2023-02-12T10:44:27;95673.06;;;3.64;56.32
6528;BME280;64597;42.664;23.256;2023-02-12T10:46:53;95678.25;;;3.64;56.90
6528;BME280;64597;42.664;23.256;2023-02-12T10:49:19;95680.88;;;3.56;56.98
6528;BME280;64597;42.664;23.256;2023-02-12T10:54:42;95664.44;;;3.64;57.17
6528;BME280;64597;42.664;23.256;2023-02-12T10:57:27;95676.63;;;3.87;56.24
6528;BME280;64597;42.664;23.256;2023-02-12T10:59:56;95654.28;;;3.85;56.05
6528;BME280;64597;42.664;23.256;2023-02-12T11:02:28;95662.53;;;4.12;55.83
6528;BME280;64597;42.664;23.256;2023-02-12T11:04:55;95657.28;;;4.21;55.53
6528;BME280;64597;42.664;23.256;2023-02-12T11:07:21;95668.00;;;4.34;55.96
6528;BME280;64597;42.664;23.256;2023-02-12T11:09:50;95673.19;;;4.42;55.33
6528;BME280;64597;42.664;23.256;2023-02-12T11:14:53;95667.28;;;4.48;55.21
6528;BME280;64597;42.664;23.256;2023-02-12T11:17:36;95660.44;;;4.47;54.90
6528;BME280;64597;42.664;23.256;2023-02-12T11:20:14;95674.94;;;4.57;54.41
6528;BME280;64597;42.664;23.256;2023-02-12T11:22:50;95672.84;;;4.45;54.47
6528;BME280;64597;42.664;23.256;2023-02-12T11:25:16;95667.13;;;4.49;54.41
6528;BME280;64597;42.664;23.256;2023-02-12T11:27:43;95670.25;;;4.45;54.92
6528;BME280;64597;42.664;23.256;2023-02-12T11:30:17;95672.72;;;4.38;55.13
6528;BME280;64597;42.664;23.256;2023-02-12T11:32:44;95669.59;;;4.43;55.09
6528;BME280;64597;42.664;23.256;2023-02-12T11:35:17;95660.63;;;4.45;55.37
6528;BME280;64597;42.664;23.256;2023-02-12T11:37:48;95660.22;;;4.56;54.62
6528;BME280;64597;42.664;23.256;2023-02-12T11:40:23;95672.09;;;4.67;54.65
6528;BME280;64597;42.664;23.256;2023-02-12T11:42:51;95671.41;;;4.73;54.38
6528;BME280;64597;42.664;23.256;2023-02-12T11:45:19;95679.91;;;4.75;54.34
6528;BME280;64597;42.664;23.256;2023-02-12T11:47:46;95665.22;;;4.74;54.77
6528;BME280;64597;42.664;23.256;2023-02-12T11:50:21;95664.03;;;4.84;54.15
6528;BME280;64597;42.664;23.256;2023-02-12T11:52:50;95654.31;;;4.93;54.27
6528;BME280;64597;42.664;23.256;2023-02-12T11:55:39;95655.03;;;5.10;53.40
6528;BME280;64597;42.664;23.256;2023-02-12T11:58:22;95660.78;;;5.05;52.92
6528;BME280;64597;42.664;23.256;2023-02-12T12:05:50;95659.34;;;5.25;53.19
6528;BME280;64597;42.664;23.256;2023-02-12T12:08:28;95653.00;;;5.42;52.38
6528;BME280;64597;42.664;23.256;2023-02-12T12:11:03;95666.94;;;5.57;51.81
6528;BME280;64597;42.664;23.256;2023-02-12T12:13:40;95667.63;;;5.51;51.61
6528;BME280;64597;42.664;23.256;2023-02-12T12:16:36;95672.56;;;5.46;51.97
6528;BME280;64597;42.664;23.256;2023-02-12T12:19:27;95682.06;;;5.47;51.80
6528;BME280;64597;42.664;23.256;2023-02-12T12:53:08;95679.34;;;6.15;49.63
6528;BME280;64597;42.664;23.256;2023-02-12T13:01:47;95693.84;;;5.89;50.32
6528;BME280;64597;42.664;23.256;2023-02-12T13:07:04;95700.97;;;5.72;50.69
6528;BME280;64597;42.664;23.256;2023-02-12T13:22:49;95707.25;;;5.40;51.71
6528;BME280;64597;42.664;23.256;2023-02-12T13:27:46;95717.84;;;5.24;52.30
6528;BME280;64597;42.664;23.256;2023-02-12T13:35:17;95717.78;;;5.32;52.36
6528;BME280;64597;42.664;23.256;2023-02-12T13:37:46;95716.22;;;5.23;52.63
6528;BME280;64597;42.664;23.256;2023-02-12T13:40:15;95712.91;;;5.29;52.89
6528;BME280;64597;42.664;23.256;2023-02-12T14:01:09;95724.66;;;5.33;52.19
6528;BME280;64597;42.664;23.256;2023-02-12T14:03:37;95730.97;;;5.39;52.57
6528;BME280;64597;42.664;23.256;2023-02-12T14:06:09;95735.91;;;5.34;52.35
6528;BME280;64597;42.664;23.256;2023-02-12T14:08:37;95736.44;;;5.29;53.23
6528;BME280;64597;42.664;23.256;2023-02-12T14:11:10;95733.66;;;5.31;52.90
6528;BME280;64597;42.664;23.256;2023-02-12T14:13:58;95742.94;;;5.33;53.20
6528;BME280;64597;42.664;23.256;2023-02-12T14:22:00;95758.84;;;5.24;51.93
6528;BME280;64597;42.664;23.256;2023-02-12T14:27:02;95759.19;;;5.21;52.58
6528;BME280;64597;42.664;23.256;2023-02-12T14:29:29;95771.06;;;5.31;53.00
6528;BME280;64597;42.664;23.256;2023-02-12T14:31:54;95767.81;;;5.29;52.41
6528;BME280;64597;42.664;23.256;2023-02-12T14:36:46;95776.03;;;5.18;53.33
6528;BME280;64597;42.664;23.256;2023-02-12T14:44:42;95786.94;;;5.22;53.55
6528;BME280;64597;42.664;23.256;2023-02-12T14:47:13;95791.38;;;5.21;53.34
6528;BME280;64597;42.664;23.256;2023-02-12T14:49:47;95791.84;;;5.25;52.82
6528;BME280;64597;42.664;23.256;2023-02-12T14:52:19;95800.66;;;5.24;52.62
6528;BME280;64597;42.664;23.256;2023-02-12T14:57:37;95799.88;;;5.23;53.46
6528;BME280;64597;42.664;23.256;2023-02-12T15:00:18;95798.22;;;5.22;52.48
6528;BME280;64597;42.664;23.256;2023-02-12T15:03:02;95788.78;;;5.21;53.32
6528;BME280;64597;42.664;23.256;2023-02-12T15:05:37;95778.38;;;5.05;53.30
6528;BME280;64597;42.664;23.256;2023-02-12T15:08:31;95809.69;;;5.13;52.87
6528;BME280;64597;42.664;23.256;2023-02-12T15:19:06;95835.88;;;5.05;53.10
6528;BME280;64597;42.664;23.256;2023-02-12T15:21:39;95848.00;;;4.98;53.90
6528;BME280;64597;42.664;23.256;2023-02-12T15:24:11;95829.91;;;4.80;54.59
6528;BME280;64597;42.664;23.256;2023-02-12T15:26:57;95857.31;;;4.92;54.14
6528;BME280;64597;42.664;23.256;2023-02-12T15:29:40;95864.19;;;4.85;54.86
6528;BME280;64597;42.664;23.256;2023-02-12T15:32:16;95862.44;;;4.70;54.38
6528;BME280;64597;42.664;23.256;2023-02-12T15:34:47;95877.28;;;4.77;55.40
6528;BME280;64597;42.664;23.256;2023-02-12T15:37:22;95878.75;;;4.80;54.29
6528;BME280;64597;42.664;23.256;2023-02-12T15:39:51;95875.81;;;4.75;54.65
6528;BME280;64597;42.664;23.256;2023-02-12T15:42:25;95880.72;;;4.70;54.86
6528;BME280;64597;42.664;23.256;2023-02-12T15:44:51;95884.16;;;4.62;55.63
6528;BME280;64597;42.664;23.256;2023-02-12T15:47:17;95883.03;;;4.57;55.20
6528;BME280;64597;42.664;23.256;2023-02-12T15:49:48;95884.31;;;4.53;55.60
6528;BME280;64597;42.664;23.256;2023-02-12T15:52:22;95889.56;;;4.53;55.80
6528;BME280;64597;42.664;23.256;2023-02-12T15:54:56;95887.94;;;4.52;56.34
6528;BME280;64597;42.664;23.256;2023-02-12T15:57:22;95892.00;;;4.46;56.09
6528;BME280;64597;42.664;23.256;2023-02-12T15:59:53;95886.47;;;4.41;56.24
6528;BME280;64597;42.664;23.256;2023-02-12T16:02:27;95895.75;;;4.44;55.77
6528;BME280;64597;42.664;23.256;2023-02-12T16:04:56;95893.00;;;4.45;55.95
6528;BME280;64597;42.664;23.256;2023-02-12T16:07:24;95914.03;;;4.52;55.62
6528;BME280;64597;42.664;23.256;2023-02-12T16:09:51;95896.91;;;4.25;55.83
6528;BME280;64597;42.664;23.256;2023-02-12T16:12:22;95926.75;;;4.31;56.99
6528;BME280;64597;42.664;23.256;2023-02-12T16:14:52;95935.41;;;4.31;56.63
6528;BME280;64597;42.664;23.256;2023-02-12T16:20:02;95932.28;;;4.28;56.43
6528;BME280;64597;42.664;23.256;2023-02-12T16:22:35;95938.03;;;4.23;56.55
6528;BME280;64597;42.664;23.256;2023-02-12T16:25:03;95938.50;;;4.10;56.97
6528;BME280;64597;42.664;23.256;2023-02-12T16:27:36;95953.16;;;4.11;57.60
6528;BME280;64597;42.664;23.256;2023-02-12T16:30:20;95959.19;;;4.12;57.69
6528;BME280;64597;42.664;23.256;2023-02-12T16:32:46;95949.56;;;4.04;57.27
6528;BME280;64597;42.664;23.256;2023-02-12T16:48:01;95971.38;;;3.87;58.35
6528;BME280;64597;42.664;23.256;2023-02-12T16:50:31;95949.78;;;3.69;58.47
6528;BME280;64597;42.664;23.256;2023-02-12T16:53:06;95970.97;;;3.74;58.50
6528;BME280;64597;42.664;23.256;2023-02-12T16:55:32;95975.69;;;3.71;58.54
6528;BME280;64597;42.664;23.256;2023-02-12T16:57:59;95981.56;;;3.73;58.46
6528;BME280;64597;42.664;23.256;2023-02-12T17:00:25;95979.38;;;3.52;58.76
6528;BME280;64597;42.664;23.256;2023-02-12T17:02:53;95986.22;;;3.53;59.19
6528;BME280;64597;42.664;23.256;2023-02-12T17:05:20;95994.03;;;3.45;59.05